| time (UTC) | temp F | wind direction | speed MPH | gust MPH | rain 1hr in | rain 24hr in | rain mn in | humidity % | barometer mb |
| 20260831032530 | 63 | 29 | 3.0 | 6.0 | 0.00 | 0.00 | 0.00 | 82 | 1015.9 |
| 20260831032028 | 63 | 323 | 2.0 | 5.0 | 0.00 | 0.00 | 0.00 | 81 | 1016.0 |
| 20260831031533 | 63 | 331 | 1.0 | 8.0 | 0.00 | 0.00 | 0.00 | 81 | 1015.8 |
| 20260831031027 | 63 | 323 | 3.0 | 9.0 | 0.00 | 0.00 | 0.00 | 81 | 1015.7 |
| 20260831030526 | 63 | 333 | 1.0 | 9.0 | 0.00 | 0.00 | 0.00 | 80 | 1015.8 |
| 20260831030027 | 63 | 289 | 3.0 | 10.0 | 0.00 | 0.00 | 0.00 | 80 | 1016.1 |
| 20260831025526 | 64 | 306 | 4.0 | 10.0 | 0.00 | 0.00 | 0.00 | 80 | 1016.0 |
| 20260831025027 | 64 | 303 | 4.0 | 9.0 | 0.00 | 0.00 | 0.00 | 79 | 1016.1 |
| 20260831024527 | 64 | 323 | 3.0 | 14.0 | 0.00 | 0.00 | 0.00 | 79 | 1016.1 |
| 20260831024028 | 64 | 319 | 5.0 | 14.0 | 0.00 | 0.00 | 0.00 | 79 | 1016.0 |
| 20260831023527 | 65 | 355 | 4.0 | 14.0 | 0.00 | 0.00 | 0.00 | 79 | 1016.0 |
| 20260831023024 | 65 | 5 | 6.0 | 14.0 | 0.00 | 0.00 | 0.00 | 78 | 1016.1 |
| 20260831022524 | 66 | 319 | 6.0 | 14.0 | 0.00 | 0.00 | 0.00 | 77 | 1016.1 |
| 20260831022024 | 66 | 330 | 7.0 | 18.0 | 0.00 | 0.00 | 0.00 | 77 | 1016.1 |
| 20260831021529 | 67 | 21 | 8.0 | 20.0 | 0.00 | 0.00 | 0.00 | 74 | 1016.1 |
| 20260831021025 | 67 | 355 | 8.0 | 20.0 | 0.00 | 0.00 | 0.00 | 70 | 1016.1 |
| 20260831020527 | 67 | 42 | 9.0 | 25.0 | 0.00 | 0.00 | 0.00 | 69 | 1016.1 |
| 20260831020023 | 68 | 355 | 9.0 | 25.0 | 0.00 | 0.00 | 0.00 | 70 | 1016.0 |
| 20260831015533 | 68 | 315 | 7.0 | 23.0 | 0.00 | 0.00 | 0.00 | 72 | 1015.7 |
| 20260831015027 | 68 | 11 | 11.0 | 21.0 | 0.00 | 0.00 | 0.00 | 75 | 1015.8 |
| 20260831014523 | 68 | 304 | 4.0 | 10.0 | 0.00 | 0.00 | 0.00 | 80 | 1015.4 |
| 20260831014023 | 68 | 329 | 0.0 | 1.0 | 0.00 | 0.00 | 0.00 | 79 | 1014.9 |
| 20260831013524 | 68 | 329 | 0.0 | 3.0 | 0.00 | 0.00 | 0.00 | 79 | 1014.7 |
| 20260831013037 | 68 | 329 | 0.0 | 3.0 | 0.00 | 0.00 | 0.00 | 79 | 1014.7 |
| 20260831012522 | 68 | 329 | 1.0 | 3.0 | 0.00 | 0.00 | 0.00 | 80 | 1014.7 |
| 20260831012022 | 68 | 350 | 1.0 | 4.0 | 0.00 | 0.00 | 0.00 | 79 | 1014.7 |
| 20260831011522 | 68 | 350 | 1.0 | 4.0 | 0.00 | 0.00 | 0.00 | 78 | 1014.6 |
| 20260831011025 | 68 | 355 | 2.0 | 4.0 | 0.00 | 0.00 | 0.00 | 76 | 1014.6 |
| 20260831010522 | 68 | 264 | 0.0 | 3.0 | 0.00 | 0.00 | 0.00 | 74 | 1014.6 |
| 20260831010022 | 68 | 261 | 0.0 | 4.0 | 0.00 | 0.00 | 0.00 | 76 | 1014.5 |
| 20260831005522 | 68 | 265 | 1.0 | 3.0 | 0.00 | 0.00 | 0.00 | 76 | 1014.4 |
| 20260831005021 | 68 | 265 | 0.0 | 3.0 | 0.00 | 0.00 | 0.00 | 76 | 1014.4 |
| 20260831004521 | 68 | 265 | 1.0 | 3.0 | 0.00 | 0.00 | 0.00 | 76 | 1014.4 |
| 20260831004020 | 69 | 265 | 1.0 | 3.0 | 0.00 | 0.00 | 0.00 | 76 | 1014.4 |
| 20260831003522 | 69 | 266 | 1.0 | 3.0 | 0.00 | 0.00 | 0.00 | 77 | 1014.4 |
| 20260831003024 | 69 | 266 | 1.0 | 2.0 | 0.00 | 0.00 | 0.00 | 76 | 1014.4 |
| 20260831002522 | 69 | 267 | 0.0 | 2.0 | 0.00 | 0.00 | 0.00 | 75 | 1014.5 |
| 20260831002019 | 69 | 267 | 0.0 | 2.0 | 0.00 | 0.00 | 0.00 | 75 | 1014.4 |
| 20260831001525 | 69 | 267 | 1.0 | 2.0 | 0.00 | 0.00 | 0.00 | 74 | 1014.2 |
| 20260831001021 | 70 | 267 | 0.0 | 1.0 | 0.00 | 0.00 | 0.00 | 73 | 1014.2 |
| 20260831000519 | 70 | 267 | 0.0 | 2.0 | 0.00 | 0.00 | 0.00 | 73 | 1014.1 |
| 20260831000020 | 70 | 267 | 0.0 | 2.0 | 0.00 | 0.00 | 0.00 | 73 | 1014.1 |
| 20260830235519 | 70 | 267 | 0.0 | 4.0 | 0.00 | 0.00 | 0.00 | 72 | 1014.1 |
| 20260830235025 | 70 | 267 | 1.0 | 4.0 | 0.00 | 0.00 | 0.00 | 71 | 1014.2 |
| 20260830234518 | 70 | 269 | 0.0 | 4.0 | 0.00 | 0.00 | 0.00 | 71 | 1014.0 |
| 20260830234018 | 70 | 269 | 1.0 | 6.0 | 0.00 | 0.00 | 0.00 | 70 | 1014.1 |
| 20260830233522 | 70 | 270 | 1.0 | 6.0 | 0.00 | 0.00 | 0.00 | 67 | 1014.1 |
| 20260830233017 | 70 | 270 | 1.0 | 6.0 | 0.00 | 0.00 | 0.00 | 69 | 1014.2 |
| 20260830232517 | 70 | 219 | 1.0 | 4.0 | 0.00 | 0.00 | 0.00 | 69 | 1014.1 |
| 20260830232017 | 70 | 247 | 1.0 | 4.0 | 0.00 | 0.00 | 0.00 | 70 | 1014.0 |
| 20260830231517 | 70 | 265 | 0.0 | 4.0 | 0.00 | 0.00 | 0.00 | 70 | 1014.1 |
| 20260830231017 | 70 | 279 | 1.0 | 4.0 | 0.00 | 0.00 | 0.00 | 69 | 1014.1 |
| 20260830230516 | 70 | 279 | 1.0 | 4.0 | 0.00 | 0.00 | 0.00 | 68 | 1013.9 |
| 20260830230018 | 71 | 273 | 1.0 | 3.0 | 0.00 | 0.00 | 0.00 | 70 | 1014.0 |
| 20260830225516 | 71 | 231 | 1.0 | 3.0 | 0.00 | 0.00 | 0.00 | 70 | 1013.9 |
| 20260830225016 | 71 | 271 | 0.0 | 7.0 | 0.00 | 0.00 | 0.00 | 70 | 1013.9 |
| 20260830224518 | 71 | 271 | 1.0 | 7.0 | 0.00 | 0.00 | 0.00 | 68 | 1014.0 |
| 20260830224017 | 71 | 272 | 1.0 | 4.0 | 0.00 | 0.00 | 0.00 | 70 | 1014.1 |
| 20260830223515 | 71 | 189 | 1.0 | 4.0 | 0.00 | 0.00 | 0.00 | 68 | 1014.0 |
| 20260830223016 | 71 | 154 | 1.0 | 3.0 | 0.00 | 0.00 | 0.00 | 70 | 1014.1 |
| 20260830222515 | 72 | 161 | 0.0 | 3.0 | 0.00 | 0.00 | 0.00 | 70 | 1014.0 |
| 20260830222014 | 72 | 150 | 0.0 | 3.0 | 0.00 | 0.00 | 0.00 | 69 | 1014.0 |
| 20260830221518 | 72 | 183 | 0.0 | 3.0 | 0.00 | 0.00 | 0.00 | 69 | 1013.9 |
| 20260830221015 | 72 | 15 | 1.0 | 4.0 | 0.00 | 0.00 | 0.00 | 67 | 1014.0 |
| 20260830220514 | 72 | 283 | 1.0 | 6.0 | 0.00 | 0.00 | 0.00 | 67 | 1014.2 |
| 20260830220014 | 72 | 161 | 2.0 | 8.0 | 0.00 | 0.00 | 0.00 | 67 | 1014.1 |
| 20260830215513 | 72 | 270 | 3.0 | 8.0 | 0.00 | 0.00 | 0.00 | 67 | 1014.0 |
| 20260830215013 | 72 | 269 | 1.0 | 6.0 | 0.00 | 0.00 | 0.00 | 68 | 1014.0 |
| 20260830214518 | 72 | 207 | 1.0 | 8.0 | 0.00 | 0.00 | 0.00 | 67 | 1014.2 |
| 20260830214012 | 72 | 196 | 3.0 | 7.0 | 0.00 | 0.00 | 0.00 | 68 | 1014.2 |
| 20260830213516 | 72 | 280 | 1.0 | 4.0 | 0.00 | 0.00 | 0.00 | 68 | 1014.1 |
| 20260830213014 | 72 | 283 | 0.0 | 9.0 | 0.00 | 0.00 | 0.00 | 68 | 1014.1 |
| 20260830212514 | 72 | 275 | 2.0 | 9.0 | 0.00 | 0.00 | 0.00 | 68 | 1014.1 |
| 20260830212011 | 72 | 269 | 1.0 | 7.0 | 0.00 | 0.00 | 0.00 | 69 | 1014.2 |
| 20260830211512 | 72 | 269 | 2.0 | 7.0 | 0.00 | 0.00 | 0.00 | 69 | 1014.2 |
| 20260830211011 | 72 | 253 | 1.0 | 4.0 | 0.00 | 0.00 | 0.00 | 70 | 1014.2 |
| 20260830210511 | 72 | 266 | 1.0 | 4.0 | 0.00 | 0.00 | 0.00 | 72 | 1014.2 |
| 20260830210011 | 72 | 269 | 1.0 | 3.0 | 0.00 | 0.00 | 0.00 | 73 | 1014.2 |
| 20260830205513 | 72 | 269 | 0.0 | 3.0 | 0.00 | 0.00 | 0.00 | 72 | 1014.2 |
| 20260830205010 | 72 | 269 | 1.0 | 4.0 | 0.00 | 0.00 | 0.00 | 72 | 1014.2 |
| 20260830204510 | 72 | 268 | 1.0 | 4.0 | 0.00 | 0.00 | 0.00 | 72 | 1014.2 |
| 20260830204009 | 71 | 257 | 1.0 | 3.0 | 0.00 | 0.00 | 0.00 | 73 | 1014.2 |
| 20260830203509 | 71 | 257 | 1.0 | 4.0 | 0.00 | 0.00 | 0.00 | 73 | 1014.3 |
| 20260830203019 | 71 | 276 | 1.0 | 4.0 | 0.00 | 0.00 | 0.00 | 73 | 1014.4 |
| 20260830202508 | 71 | 299 | 1.0 | 7.0 | 0.00 | 0.00 | 0.00 | 74 | 1014.3 |
| 20260830202008 | 71 | 266 | 3.0 | 7.0 | 0.00 | 0.00 | 0.00 | 74 | 1014.4 |
| 20260830201508 | 71 | 279 | 1.0 | 4.0 | 0.00 | 0.00 | 0.00 | 74 | 1014.3 |
| 20260830201012 | 71 | 277 | 0.0 | 5.0 | 0.00 | 0.00 | 0.00 | 75 | 1014.5 |
| 20260830200507 | 71 | 277 | 1.0 | 5.0 | 0.00 | 0.00 | 0.00 | 75 | 1014.5 |
| 20260830200007 | 71 | 270 | 1.0 | 5.0 | 0.00 | 0.00 | 0.00 | 74 | 1014.5 |
| 20260830195506 | 71 | 215 | 1.0 | 5.0 | 0.00 | 0.00 | 0.00 | 74 | 1014.6 |
| 20260830195006 | 71 | 237 | 1.0 | 5.0 | 0.00 | 0.00 | 0.00 | 74 | 1014.6 |
| 20260830194506 | 71 | 271 | 1.0 | 4.0 | 0.00 | 0.00 | 0.00 | 75 | 1014.6 |
| 20260830194006 | 71 | 271 | 2.0 | 4.0 | 0.00 | 0.00 | 0.00 | 75 | 1014.6 |
| 20260830193506 | 71 | 269 | 1.0 | 4.0 | 0.00 | 0.00 | 0.00 | 75 | 1014.6 |
| 20260830193005 | 71 | 270 | 1.0 | 5.0 | 0.00 | 0.00 | 0.00 | 75 | 1014.8 |
| 20260830192504 | 71 | 195 | 2.0 | 5.0 | 0.00 | 0.00 | 0.00 | 75 | 1014.8 |
| 20260830192004 | 71 | 286 | 2.0 | 8.0 | 0.00 | 0.00 | 0.00 | 75 | 1015.0 |
| 20260830191504 | 70 | 269 | 1.0 | 8.0 | 0.00 | 0.00 | 0.00 | 75 | 1015.0 |
| 20260830191003 | 71 | 169 | 2.0 | 8.0 | 0.00 | 0.00 | 0.00 | 75 | 1015.3 |
| 20260830190503 | 71 | 229 | 3.0 | 8.0 | 0.00 | 0.00 | 0.00 | 74 | 1015.4 |
| 20260830190002 | 71 | 271 | 1.0 | 11.0 | 0.00 | 0.00 | 0.00 | 74 | 1015.3 |
| 20260830185502 | 71 | 173 | 2.0 | 10.0 | 0.00 | 0.00 | 0.00 | 74 | 1015.6 |
| 20260830185003 | 71 | 200 | 3.0 | 5.0 | 0.00 | 0.00 | 0.00 | 74 | 1015.3 |
| 20260830184504 | 72 | 299 | 0.0 | 3.0 | 0.00 | 0.00 | 0.00 | 71 | 1015.0 |
| 20260830184000 | 72 | 323 | 1.0 | 3.0 | 0.00 | 0.00 | 0.00 | 73 | 1015.2 |
| 20260830183602 | 72 | 256 | 0.0 | 4.0 | 0.00 | 0.00 | 0.00 | 71 | 1015.5 |
| 20260830183115 | 72 | 254 | 1.0 | 8.0 | 0.00 | 0.00 | 0.00 | 70 | 1015.8 |
| 20260830182603 | 72 | 249 | 2.0 | 8.0 | 0.00 | 0.00 | 0.00 | 69 | 1015.8 |
| 20260830182058 | 72 | 248 | 2.0 | 6.0 | 0.00 | 0.00 | 0.00 | 67 | 1016.0 |
| 20260830181558 | 73 | 276 | 1.0 | 9.0 | 0.00 | 0.00 | 0.00 | 67 | 1016.0 |
| 20260830181101 | 73 | 268 | 3.0 | 10.0 | 0.00 | 0.00 | 0.00 | 66 | 1016.1 |
| 20260830180558 | 73 | 263 | 1.0 | 9.0 | 0.00 | 0.00 | 0.00 | 65 | 1016.0 |
| 20260830180104 | 74 | 260 | 4.0 | 9.0 | 0.00 | 0.00 | 0.00 | 64 | 1015.9 |
| 20260830175555 | 74 | 301 | 1.0 | 7.0 | 0.00 | 0.00 | 0.00 | 63 | 1015.8 |
| 20260830175057 | 74 | 290 | 1.0 | 9.0 | 0.00 | 0.00 | 0.00 | 62 | 1016.1 |
| 20260830174557 | 74 | 282 | 2.0 | 9.0 | 0.00 | 0.00 | 0.00 | 62 | 1016.1 |
| 20260830174058 | 74 | 269 | 3.0 | 9.0 | 0.00 | 0.00 | 0.00 | 62 | 1016.3 |
| 20260830173554 | 74 | 266 | 2.0 | 11.0 | 0.00 | 0.00 | 0.00 | 61 | 1016.2 |
| 20260830173110 | 74 | 272 | 2.0 | 11.0 | 0.00 | 0.00 | 0.00 | 60 | 1016.2 |
| 20260830172554 | 75 | 269 | 2.0 | 9.0 | 0.00 | 0.00 | 0.00 | 60 | 1016.3 |
| 20260830172057 | 75 | 261 | 3.0 | 7.0 | 0.00 | 0.00 | 0.00 | 59 | 1016.2 |
| 20260830171553 | 75 | 269 | 2.0 | 9.0 | 0.00 | 0.00 | 0.00 | 59 | 1016.2 |
| 20260830171052 | 75 | 274 | 2.0 | 10.0 | 0.00 | 0.00 | 0.00 | 59 | 1016.1 |
| 20260830170556 | 76 | 268 | 2.0 | 8.0 | 0.00 | 0.00 | 0.00 | 58 | 1016.1 |
| 20260830170056 | 76 | 269 | 4.0 | 8.0 | 0.00 | 0.00 | 0.00 | 57 | 1016.1 |
| 20260830165552 | 76 | 261 | 2.0 | 7.0 | 0.00 | 0.00 | 0.00 | 58 | 1016.1 |
| 20260830165052 | 77 | 298 | 1.0 | 4.0 | 0.00 | 0.00 | 0.00 | 57 | 1016.1 |
| 20260830164557 | 77 | 323 | 1.0 | 4.0 | 0.00 | 0.00 | 0.00 | 58 | 1016.1 |
| 20260830164051 | 77 | 314 | 1.0 | 6.0 | 0.00 | 0.00 | 0.00 | 57 | 1016.0 |
| 20260830163551 | 77 | 310 | 1.0 | 6.0 | 0.00 | 0.00 | 0.00 | 57 | 1016.0 |
| 20260830163057 | 77 | 315 | 1.0 | 4.0 | 0.00 | 0.00 | 0.00 | 57 | 1016.1 |
| 20260830162551 | 77 | 271 | 2.0 | 4.0 | 0.00 | 0.00 | 0.00 | 57 | 1016.3 |
| 20260830162049 | 78 | 254 | 1.0 | 3.0 | 0.00 | 0.00 | 0.00 | 56 | 1016.2 |
| 20260830161609 | 78 | 269 | 1.0 | 6.0 | 0.00 | 0.00 | 0.00 | 57 | 1016.3 |
| 20260830161047 | 78 | 272 | 1.0 | 8.0 | 0.00 | 0.00 | 0.00 | 56 | 1016.3 |
| 20260830160547 | 78 | 276 | 4.0 | 8.0 | 0.00 | 0.00 | 0.00 | 54 | 1016.4 |
| 20260830160047 | 79 | 264 | 2.0 | 6.0 | 0.00 | 0.00 | 0.00 | 54 | 1016.4 |
| 20260830155546 | 78 | 234 | 1.0 | 6.0 | 0.00 | 0.00 | 0.00 | 54 | 1016.4 |
| 20260830155045 | 78 | 167 | 1.0 | 6.0 | 0.00 | 0.00 | 0.00 | 56 | 1016.2 |
| 20260830154545 | 78 | 262 | 2.0 | 6.0 | 0.00 | 0.00 | 0.00 | 55 | 1016.4 |
| 20260830154043 | 77 | 220 | 2.0 | 6.0 | 0.00 | 0.00 | 0.00 | 59 | 1016.4 |
| 20260830153541 | 76 | 268 | 2.0 | 9.0 | 0.00 | 0.00 | 0.00 | 59 | 1016.5 |
| 20260830153047 | 75 | 273 | 3.0 | 9.0 | 0.00 | 0.00 | 0.00 | 59 | 1016.5 |
| 20260830152538 | 74 | 264 | 1.0 | 6.0 | 0.00 | 0.00 | 0.00 | 62 | 1016.7 |
| 20260830152039 | 74 | 266 | 1.0 | 6.0 | 0.00 | 0.00 | 0.00 | 62 | 1016.7 |
| 20260830151540 | 74 | 273 | 2.0 | 6.0 | 0.00 | 0.00 | 0.00 | 62 | 1016.7 |
| 20260830151036 | 74 | 262 | 1.0 | 6.0 | 0.00 | 0.00 | 0.00 | 62 | 1016.8 |
| 20260830150539 | 74 | 206 | 1.0 | 6.0 | 0.00 | 0.00 | 0.00 | 61 | 1016.8 |
| 20260830150049 | 74 | 269 | 2.0 | 6.0 | 0.00 | 0.00 | 0.00 | 61 | 1016.9 |
| 20260830145535 | 74 | 268 | 1.0 | 7.0 | 0.00 | 0.00 | 0.00 | 60 | 1017.0 |
| 20260830145035 | 74 | 273 | 3.0 | 9.0 | 0.00 | 0.00 | 0.00 | 61 | 1017.1 |
| 20260830144533 | 73 | 263 | 3.0 | 9.0 | 0.00 | 0.00 | 0.00 | 63 | 1017.2 |
| 20260830144033 | 73 | 267 | 1.0 | 11.0 | 0.00 | 0.00 | 0.00 | 64 | 1017.2 |
| 20260830143529 | 72 | 266 | 2.0 | 11.0 | 0.00 | 0.00 | 0.00 | 64 | 1017.2 |
| 20260830143028 | 72 | 268 | 3.0 | 10.0 | 0.00 | 0.00 | 0.00 | 63 | 1017.2 |
| 20260830142530 | 71 | 257 | 5.0 | 10.0 | 0.00 | 0.00 | 0.00 | 64 | 1017.1 |
| 20260830142026 | 71 | 272 | 3.0 | 9.0 | 0.00 | 0.00 | 0.00 | 65 | 1017.2 |
| 20260830141525 | 71 | 151 | 3.0 | 8.0 | 0.00 | 0.00 | 0.00 | 65 | 1017.3 |
| 20260830141024 | 70 | 232 | 1.0 | 9.0 | 0.00 | 0.00 | 0.00 | 65 | 1017.3 |
| 20260830140528 | 70 | 265 | 2.0 | 9.0 | 0.00 | 0.00 | 0.00 | 66 | 1017.2 |
| 20260830140023 | 70 | 270 | 3.0 | 9.0 | 0.00 | 0.00 | 0.00 | 66 | 1017.3 |
| 20260830135524 | 70 | 277 | 2.0 | 8.0 | 0.00 | 0.00 | 0.00 | 68 | 1017.3 |
| 20260830135020 | 69 | 268 | 3.0 | 8.0 | 0.00 | 0.00 | 0.00 | 69 | 1017.2 |
| 20260830134520 | 68 | 203 | 2.0 | 8.0 | 0.00 | 0.00 | 0.00 | 69 | 1017.4 |
| 20260830134019 | 68 | 224 | 3.0 | 8.0 | 0.00 | 0.00 | 0.00 | 70 | 1017.5 |
| 20260830133520 | 68 | 279 | 3.0 | 11.0 | 0.00 | 0.00 | 0.00 | 70 | 1017.5 |
| 20260830133016 | 67 | 271 | 4.0 | 11.0 | 0.00 | 0.00 | 0.00 | 72 | 1017.5 |
| 20260830132514 | 67 | 147 | 2.0 | 8.0 | 0.00 | 0.00 | 0.00 | 71 | 1017.6 |
| 20260830132017 | 67 | 264 | 4.0 | 7.0 | 0.00 | 0.00 | 0.00 | 71 | 1017.5 |
| 20260830131515 | 66 | 263 | 3.0 | 10.0 | 0.00 | 0.00 | 0.00 | 72 | 1017.4 |
| 20260830131012 | 66 | 256 | 3.0 | 10.0 | 0.00 | 0.00 | 0.00 | 73 | 1017.4 |
| 20260830130512 | 66 | 270 | 2.0 | 9.0 | 0.00 | 0.00 | 0.00 | 73 | 1017.5 |
| 20260830130010 | 65 | 263 | 3.0 | 9.0 | 0.00 | 0.00 | 0.00 | 73 | 1017.4 |
| 20260830125510 | 65 | 269 | 2.0 | 5.0 | 0.00 | 0.00 | 0.00 | 73 | 1017.5 |
| 20260830125009 | 65 | 254 | 2.0 | 8.0 | 0.00 | 0.00 | 0.00 | 74 | 1017.5 |
| 20260830124509 | 65 | 257 | 3.0 | 9.0 | 0.00 | 0.00 | 0.00 | 74 | 1017.6 |
| 20260830124008 | 65 | 266 | 4.0 | 9.0 | 0.00 | 0.00 | 0.00 | 74 | 1017.7 |
| 20260830123508 | 65 | 251 | 3.0 | 9.0 | 0.00 | 0.00 | 0.00 | 73 | 1017.6 |
| 20260830123007 | 64 | 270 | 3.0 | 9.0 | 0.00 | 0.00 | 0.00 | 73 | 1017.7 |
| 20260830122506 | 64 | 273 | 4.0 | 9.0 | 0.00 | 0.00 | 0.00 | 74 | 1017.5 |
| 20260830122006 | 64 | 264 | 3.0 | 8.0 | 0.00 | 0.00 | 0.00 | 74 | 1017.7 |
| 20260830121505 | 64 | 272 | 3.0 | 8.0 | 0.00 | 0.00 | 0.00 | 73 | 1017.7 |
| 20260830121004 | 64 | 254 | 3.0 | 8.0 | 0.00 | 0.00 | 0.00 | 73 | 1017.5 |
| 20260830120504 | 64 | 214 | 2.0 | 6.0 | 0.00 | 0.00 | 0.00 | 75 | 1017.6 |
| 20260830120004 | 63 | 213 | 3.0 | 6.0 | 0.00 | 0.00 | 0.00 | 76 | 1017.6 |
| 20260830115503 | 63 | 264 | 2.0 | 6.0 | 0.00 | 0.00 | 0.00 | 76 | 1017.7 |
| 20260830115003 | 63 | 203 | 2.0 | 8.0 | 0.00 | 0.00 | 0.00 | 75 | 1017.9 |
| 20260830114503 | 63 | 277 | 2.0 | 8.0 | 0.00 | 0.00 | 0.00 | 75 | 1017.8 |
| 20260830114002 | 63 | 236 | 3.0 | 9.0 | 0.00 | 0.00 | 0.00 | 75 | 1017.9 |
| 20260830113501 | 63 | 275 | 3.0 | 9.0 | 0.00 | 0.00 | 0.00 | 76 | 1017.9 |
| 20260830113101 | 63 | 258 | 4.0 | 9.0 | 0.00 | 0.00 | 0.00 | 76 | 1017.8 |
| 20260830112601 | 63 | 242 | 3.0 | 11.0 | 0.00 | 0.00 | 0.00 | 77 | 1017.7 |
| 20260830112058 | 62 | 243 | 4.0 | 11.0 | 0.00 | 0.00 | 0.00 | 77 | 1017.7 |
| 20260830111557 | 62 | 252 | 3.0 | 11.0 | 0.00 | 0.00 | 0.00 | 77 | 1017.7 |
| 20260830111100 | 62 | 273 | 4.0 | 13.0 | 0.00 | 0.00 | 0.00 | 78 | 1017.7 |
| 20260830110555 | 61 | 246 | 4.0 | 13.0 | 0.00 | 0.00 | 0.00 | 78 | 1017.5 |
| 20260830110053 | 61 | 286 | 2.0 | 8.0 | 0.00 | 0.00 | 0.00 | 78 | 1017.5 |
| 20260830105553 | 61 | 274 | 3.0 | 9.0 | 0.00 | 0.00 | 0.00 | 79 | 1017.6 |
| 20260830105050 | 61 | 269 | 3.0 | 9.0 | 0.00 | 0.00 | 0.00 | 79 | 1017.6 |
| 20260830104554 | 60 | 271 | 2.0 | 7.0 | 0.00 | 0.00 | 0.00 | 79 | 1017.7 |
| 20260830104047 | 60 | 282 | 3.0 | 8.0 | 0.00 | 0.00 | 0.00 | 79 | 1017.8 |
| 20260830103546 | 60 | 267 | 3.0 | 8.0 | 0.00 | 0.00 | 0.00 | 80 | 1017.8 |
| 20260830103047 | 60 | 274 | 1.0 | 4.0 | 0.00 | 0.00 | 0.00 | 81 | 1017.8 |
| 20260830102544 | 60 | 265 | 2.0 | 6.0 | 0.00 | 0.00 | 0.00 | 81 | 1018.1 |
| 20260830102042 | 60 | 268 | 2.0 | 4.0 | 0.00 | 0.00 | 0.00 | 81 | 1018.0 |
| 20260830101542 | 60 | 265 | 1.0 | 4.0 | 0.00 | 0.00 | 0.00 | 81 | 1018.0 |
| 20260830101041 | 60 | 262 | 1.0 | 5.0 | 0.00 | 0.00 | 0.00 | 81 | 1018.2 |
| 20260830100541 | 60 | 278 | 2.0 | 5.0 | 0.00 | 0.00 | 0.00 | 81 | 1018.1 |
| 20260830100042 | 60 | 241 | 2.0 | 6.0 | 0.00 | 0.00 | 0.00 | 81 | 1018.1 |
| 20260830095543 | 60 | 267 | 2.0 | 5.0 | 0.00 | 0.00 | 0.00 | 81 | 1018.1 |
| 20260830095042 | 60 | 243 | 1.0 | 4.0 | 0.00 | 0.00 | 0.00 | 81 | 1018.2 |
| 20260830094540 | 60 | 281 | 1.0 | 4.0 | 0.00 | 0.00 | 0.00 | 81 | 1018.2 |
| 20260830094039 | 60 | 283 | 2.0 | 7.0 | 0.00 | 0.00 | 0.00 | 81 | 1018.3 |
| 20260830093539 | 60 | 277 | 2.0 | 7.0 | 0.00 | 0.00 | 0.00 | 80 | 1018.2 |
| 20260830093043 | 60 | 229 | 2.0 | 6.0 | 0.00 | 0.00 | 0.00 | 80 | 1018.3 |
| 20260830092538 | 60 | 262 | 2.0 | 7.0 | 0.00 | 0.00 | 0.00 | 81 | 1018.3 |
| 20260830092038 | 60 | 248 | 2.0 | 8.0 | 0.00 | 0.00 | 0.00 | 81 | 1018.4 |
| 20260830091544 | 60 | 267 | 2.0 | 8.0 | 0.00 | 0.00 | 0.00 | 81 | 1018.4 |
| 20260830091040 | 60 | 267 | 1.0 | 3.0 | 0.00 | 0.00 | 0.00 | 81 | 1018.3 |
| 20260830090537 | 60 | 263 | 2.0 | 4.0 | 0.00 | 0.00 | 0.00 | 81 | 1018.3 |
| 20260830090037 | 60 | 263 | 2.0 | 6.0 | 0.00 | 0.00 | 0.00 | 81 | 1018.3 |
| 20260830085537 | 60 | 247 | 2.0 | 6.0 | 0.00 | 0.00 | 0.00 | 81 | 1018.3 |
| 20260830085037 | 60 | 213 | 2.0 | 4.0 | 0.00 | 0.00 | 0.00 | 81 | 1018.3 |
| 20260830084537 | 60 | 261 | 2.0 | 7.0 | 0.00 | 0.00 | 0.00 | 82 | 1018.3 |
| 20260830084039 | 60 | 263 | 1.0 | 7.0 | 0.00 | 0.00 | 0.00 | 82 | 1018.3 |
| 20260830083537 | 60 | 267 | 2.0 | 7.0 | 0.00 | 0.00 | 0.00 | 82 | 1018.4 |
| 20260830083049 | 60 | 265 | 2.0 | 6.0 | 0.00 | 0.00 | 0.00 | 82 | 1018.3 |
| 20260830082536 | 60 | 271 | 2.0 | 6.0 | 0.00 | 0.00 | 0.00 | 82 | 1018.2 |
| 20260830082035 | 60 | 198 | 3.0 | 9.0 | 0.00 | 0.00 | 0.00 | 83 | 1018.4 |
| 20260830081535 | 60 | 267 | 2.0 | 9.0 | 0.00 | 0.00 | 0.00 | 83 | 1018.4 |
| 20260830081035 | 60 | 263 | 2.0 | 8.0 | 0.00 | 0.00 | 0.00 | 84 | 1018.3 |
| 20260830080535 | 60 | 286 | 2.0 | 6.0 | 0.00 | 0.00 | 0.00 | 84 | 1018.3 |
| 20260830080035 | 60 | 264 | 2.0 | 6.0 | 0.00 | 0.00 | 0.00 | 84 | 1018.3 |
| 20260830075535 | 60 | 252 | 2.0 | 4.0 | 0.00 | 0.00 | 0.00 | 85 | 1018.4 |
| 20260830075034 | 60 | 277 | 1.0 | 4.0 | 0.00 | 0.00 | 0.00 | 85 | 1018.3 |
| 20260830074538 | 60 | 200 | 2.0 | 4.0 | 0.00 | 0.00 | 0.00 | 85 | 1018.4 |
| 20260830074033 | 60 | 261 | 2.0 | 4.0 | 0.00 | 0.00 | 0.00 | 85 | 1018.4 |
| 20260830073533 | 60 | 261 | 1.0 | 3.0 | 0.00 | 0.00 | 0.00 | 85 | 1018.4 |
| 20260830073034 | 60 | 200 | 1.0 | 3.0 | 0.00 | 0.00 | 0.00 | 84 | 1018.5 |
| 20260830072533 | 60 | 217 | 1.0 | 3.0 | 0.00 | 0.00 | 0.00 | 84 | 1018.5 |
| 20260830072032 | 60 | 213 | 1.0 | 3.0 | 0.00 | 0.00 | 0.00 | 84 | 1018.6 |
| 20260830071535 | 60 | 215 | 1.0 | 3.0 | 0.00 | 0.00 | 0.00 | 84 | 1018.6 |
| 20260830071031 | 60 | 266 | 1.0 | 3.0 | 0.00 | 0.00 | 0.00 | 85 | 1018.5 |
| 20260830070531 | 60 | 266 | 1.0 | 3.0 | 0.00 | 0.00 | 0.00 | 85 | 1018.5 |
| 20260830065530 | 60 | 265 | 2.0 | 6.0 | 0.00 | 0.00 | 0.00 | 85 | 1018.6 |
| 20260830065030 | 60 | 267 | 1.0 | 3.0 | 0.00 | 0.00 | 0.00 | 85 | 1018.5 |
| 20260830064535 | 60 | 266 | 1.0 | 2.0 | 0.00 | 0.00 | 0.00 | 85 | 1018.6 |
| 20260830064029 | 60 | 266 | 1.0 | 4.0 | 0.00 | 0.00 | 0.00 | 86 | 1018.6 |
| 20260830063532 | 60 | 267 | 1.0 | 4.0 | 0.00 | 0.00 | 0.00 | 86 | 1018.7 |
| 20260830063028 | 60 | 252 | 1.0 | 3.0 | 0.00 | 0.00 | 0.00 | 86 | 1018.8 |
| 20260830062527 | 60 | 254 | 1.0 | 2.0 | 0.00 | 0.00 | 0.00 | 87 | 1018.8 |
| 20260830062027 | 60 | 256 | 1.0 | 4.0 | 0.00 | 0.00 | 0.00 | 87 | 1018.8 |
| 20260830061532 | 60 | 256 | 2.0 | 4.0 | 0.00 | 0.00 | 0.00 | 87 | 1018.8 |
| 20260830061026 | 60 | 249 | 1.0 | 3.0 | 0.00 | 0.00 | 0.00 | 87 | 1018.9 |
| 20260830060526 | 60 | 248 | 1.0 | 3.0 | 0.00 | 0.00 | 0.00 | 87 | 1019.1 |
| 20260830060026 | 60 | 246 | 1.0 | 3.0 | 0.00 | 0.00 | 0.00 | 87 | 1019.1 |
| 20260830055526 | 60 | 247 | 1.0 | 3.0 | 0.00 | 0.00 | 0.00 | 87 | 1018.9 |
| 20260830055027 | 60 | 246 | 2.0 | 3.0 | 0.00 | 0.00 | 0.00 | 87 | 1018.8 |
| 20260830054525 | 60 | 258 | 1.0 | 3.0 | 0.00 | 0.00 | 0.00 | 87 | 1018.9 |
| 20260830054024 | 60 | 258 | 1.0 | 3.0 | 0.00 | 0.00 | 0.00 | 86 | 1018.9 |
| 20260830053524 | 61 | 258 | 1.0 | 3.0 | 0.00 | 0.00 | 0.00 | 86 | 1019.0 |
| 20260830053022 | 61 | 258 | 1.0 | 3.0 | 0.00 | 0.00 | 0.00 | 86 | 1019.0 |
| 20260830052522 | 61 | 258 | 1.0 | 4.0 | 0.00 | 0.00 | 0.00 | 85 | 1019.0 |
| 20260830052022 | 61 | 257 | 2.0 | 4.0 | 0.00 | 0.00 | 0.00 | 85 | 1019.1 |
| 20260830051522 | 61 | 258 | 1.0 | 3.0 | 0.00 | 0.00 | 0.00 | 84 | 1019.0 |
| 20260830051022 | 61 | 257 | 1.0 | 4.0 | 0.00 | 0.00 | 0.00 | 84 | 1019.0 |
| 20260830050522 | 61 | 260 | 2.0 | 4.0 | 0.00 | 0.00 | 0.00 | 84 | 1019.0 |
| 20260830050022 | 61 | 251 | 2.0 | 4.0 | 0.00 | 0.00 | 0.00 | 84 | 1019.0 |
| 20260830045521 | 61 | 249 | 2.0 | 4.0 | 0.00 | 0.00 | 0.00 | 84 | 1019.0 |
| 20260830045021 | 61 | 232 | 2.0 | 4.0 | 0.00 | 0.00 | 0.00 | 84 | 1019.1 |
| 20260830044519 | 61 | 230 | 1.0 | 4.0 | 0.00 | 0.00 | 0.00 | 84 | 1019.2 |
| 20260830044019 | 61 | 265 | 1.0 | 6.0 | 0.00 | 0.00 | 0.00 | 83 | 1019.2 |
| 20260830043522 | 61 | 265 | 2.0 | 6.0 | 0.00 | 0.00 | 0.00 | 83 | 1019.2 |
| 20260830043018 | 61 | 261 | 1.0 | 4.0 | 0.00 | 0.00 | 0.00 | 83 | 1019.3 |
| 20260830042517 | 61 | 263 | 2.0 | 4.0 | 0.00 | 0.00 | 0.00 | 82 | 1019.2 |
| 20260830042017 | 61 | 264 | 2.0 | 4.0 | 0.00 | 0.00 | 0.00 | 82 | 1019.3 |
| 20260830041520 | 61 | 245 | 2.0 | 3.0 | 0.00 | 0.00 | 0.00 | 82 | 1019.3 |
| 20260830041016 | 61 | 240 | 1.0 | 3.0 | 0.00 | 0.00 | 0.00 | 81 | 1019.3 |
| 20260830040516 | 62 | 254 | 2.0 | 3.0 | 0.00 | 0.00 | 0.00 | 81 | 1019.2 |
| 20260830040022 | 62 | 255 | 2.0 | 3.0 | 0.00 | 0.00 | 0.00 | 81 | 1019.2 |
| 20260830035517 | 62 | 229 | 2.0 | 4.0 | 0.00 | 0.00 | 0.00 | 82 | 1019.3 |
| 20260830035017 | 62 | 204 | 2.0 | 4.0 | 0.00 | 0.00 | 0.00 | 82 | 1019.4 |
| 20260830034515 | 62 | 209 | 2.0 | 4.0 | 0.00 | 0.00 | 0.00 | 82 | 1019.3 |
| 20260830034015 | 62 | 257 | 2.0 | 4.0 | 0.00 | 0.00 | 0.00 | 82 | 1019.4 |
| 20260830033514 | 62 | 257 | 2.0 | 4.0 | 0.00 | 0.00 | 0.00 | 82 | 1019.3 |
| 20260830033013 | 61 | 264 | 1.0 | 7.0 | 0.00 | 0.00 | 0.00 | 82 | 1019.4 |